KALI/ALI METAR and TAF weather

Enter ICAO airport designator
Station Type Date Time Source
KALI METAR 2019/08/24 09:53 UTC NOAA

KALI 240953Z AUTO 12004KT 8SM CLR 26/24 A2986 RMK AO2 SLP109 T02610244 $


Station Type Date Time Source
KALI Decoded METAR 2019/08/24 09:53 UTC NOAA

Station name not available
Aug 24, 2019 - 05:53 AM EDT / 2019.08.24 0953 UTC
Wind: from the ESE (120 degrees) at 5 MPH (4 KT):0
Visibility: 8 mile(s):0
Sky conditions: clear
Temperature: 79.0 F (26.1 C)
Dew Point: 75.9 F (24.4 C)
Relative Humidity: 90%
Pressure (altimeter): 29.86 in. Hg (1011 hPa)
ob: KALI 240953Z AUTO 12004KT 8SM CLR 26/24 A2986 RMK AO2 SLP109 T02610244
cycle: 10

Station Type Date Time Source
KALI TAF 2019/08/24 06:24 UTC NOAA

TAF KALI 240521Z 2406/2506 13012KT P6SM FEW025 BKN250
FM240700 15005KT P6SM SCT020
FM241500 17008KT P6SM SCT030 SCT120
FM241900 13012G19KT P6SM SCT060 SCT150
FM250100 14009KT P6SM SCT050

Example: see airport list